ASN logo
ASN Wikibase Occurrence # 222567
Last updated: 22 October 2019
This information is added by users of ASN. Neither ASN nor the Flight Safety Foundation are responsible for the completeness or correctness of this information. If you feel this information is incomplete or incorrect, you can submit corrected information.

Date:03-MAR-2019
Time:20:31 UTC
Type:Silhouette image of generic A320 model; specific model in this crash may look slightly different
Airbus A320-214 (WL)
Owner/operator:Avianca Brasil
Registration: PR-OCW
C/n / msn: 6813
Fatalities:Fatalities: 0 / Occupants: 163
Other fatalities:0
Aircraft damage: Minor
Category:Serious incident
Location:Rio de Janeiro/Galećo-Antonio Carlos Jobim International Airport, RJ -   Brazil
Phase: Landing
Nature:Domestic Scheduled Passenger
Departure airport:Salvador-Deputado Luķs Eduardo Magalhćes International Airport, BA (SSA/SBS
Destination airport:Rio de Janeiro/Galećo-Antonio Carlos Jobim International Airport, RJ (GIG)
Investigating agency: CENIPA
Narrative:
Avianca Brasil flight O66227, an Airbus A320-200, suffered a temporary runway excursion after landing in heavy rainfall on runway 15 at Rio de Janeiro/Galećo Airport, Brazil.
The flight had carried out an RNAV approach to runway 15. After touchdown the aircraft veered off the right side of the runway. The aircraft managed to reach get back onto the runway and continue to the parking stand where grass was found embedded in some parts of the aircraft.

weather about the time of the incident (2031Z):
SBGL 032043Z 02008G22KT 0500 R15///// R33///// R10/1000 R28/170 0 +TSRA FEW004 BKN009 BKN020 FEW030CB 23/22 Q1016
SBGL 032018Z 08004KT 3000 +TSRA FEW012 BKN025 FEW030CB OVC090 27/25 Q1014
SBGL 032000Z 15006KT 9999 4000NE -TSRA FEW012 BKN025 FEW027TCU FEW030CB OVC080 27/24 Q1013

Sources:

https://g1.globo.com/rj/rio-de-janeiro/noticia/2019/03/04/aeronave-da-avianca-sai-pista-durante-pouso-no-galeao.ghtml
http://www.potter.net.br/show_fnco/201903061708253


Revision history:

Date/timeContributorUpdates
04-Mar-2019 17:59 Anon. Added
04-Mar-2019 18:00 harro Updated [Aircraft type, Registration, Cn, Operator, Source, Narrative]
04-Mar-2019 18:02 harro Updated [Nature, Departure airport, Destination airport, Narrative]
04-Mar-2019 18:07 harro Updated [Time, Location, Embed code, Narrative]
06-Mar-2019 07:17 cleberjc Updated [Time, Total occupants, Embed code, Damage]
06-Mar-2019 14:44 soaresdv Updated [Date]
08-Mar-2019 07:04 harro Updated [Total occupants, Location, Destination airport, Source, Narrative]

Corrections or additions? ... Edit this accident description